This is the latest recevied weather packets stored in our database for station/object WP3OF. If no packets are shown the sender has not sent any weather packets the latest 10 day(s).
| Time | Temp. | Humidity | Pressure | Rain* | Wind** | Luminosity | Snow |
|---|---|---|---|---|---|---|---|
| 1788621427 | 29.44° C | 79% | 1017.5 hPa | 0 mm | - | - | - |
| 1788621123 | 29.44° C | 78% | 1017.4 hPa | 0 mm | - | - | - |
| 1788620818 | 28.89° C | 78% | 1017.6 hPa | 0 mm | - | - | - |
| 1788620517 | 28.89° C | 78% | 1017.5 hPa | 0 mm | - | - | - |
| 1788620215 | 29.44° C | 78% | 1017.7 hPa | 0 mm | - | - | - |
| 1788619915 | 29.44° C | 76% | 1017.4 hPa | 0 mm | - | - | - |
| 1788619609 | 29.44° C | 77% | 1017.8 hPa | 0 mm | - | - | - |
| 1788619308 | 28.89° C | 78% | 1017.5 hPa | 0 mm | - | - | - |
| 1788619003 | 29.44° C | 76% | 1017.8 hPa | 0 mm | - | - | - |
| 1788618703 | 30.56° C | 68% | 1017.7 hPa | 0 mm | - | - | - |
| 1788618401 | 30.56° C | 67% | 1017.8 hPa | 0 mm | - | - | - |
| 1788618096 | 30.56° C | 69% | 1017.6 hPa | 0 mm | - | - | - |
| 1788617796 | 30° C | 69% | 1017.6 hPa | 0 mm | - | - | - |
| 1788617493 | 30° C | 70% | 1017.6 hPa | 0 mm | - | - | - |
| 1788617188 | 30° C | 73% | 1017.5 hPa | 0 mm | - | - | - |
| 1788616887 | 30° C | 70% | 1017.4 hPa | 0 mm | - | - | - |
| 1788616582 | 30° C | 70% | 1017.6 hPa | 0 mm | - | - | - |
| 1788616278 | 29.44° C | 70% | 1017.6 hPa | 0 mm | - | - | - |
| 1788615973 | 29.44° C | 72% | 1017.7 hPa | 0 mm | - | - | - |
| 1788615671 | 30° C | 70% | 1017.6 hPa | 0 mm | - | - | - |
| 1788615367 | 30° C | 69% | 1017.6 hPa | 0 mm | - | - | - |
| 1788615067 | 29.44° C | 76% | 1017.7 hPa | 0 mm | - | - | - |
| 1788614766 | 29.44° C | 72% | 1017.5 hPa | 0 mm | - | - | - |
| 1788614461 | 29.44° C | 72% | 1017.8 hPa | 0 mm | - | - | - |
| 1788614157 | 30° C | 71% | 1017.6 hPa | 0 mm | - | - | - |
* Rain latest hour (hover to see other rain measurements)
** Current wind speed in m/s (hover to see current wind gust speed)